createdAt,value
2023-08-15T00:02:28.579Z,0.88
2023-08-15T00:05:30.288Z,0.73
2023-08-15T00:08:31.867Z,0.50
2023-08-15T00:11:33.440Z,0.70
2023-08-15T00:14:35.015Z,0.80
2023-08-15T00:17:36.632Z,0.60
2023-08-15T00:20:38.221Z,1.30
2023-08-15T00:23:39.811Z,0.85
2023-08-15T00:26:41.423Z,0.63
2023-08-15T00:29:43.069Z,0.60
2023-08-15T00:32:44.692Z,0.70
2023-08-15T00:35:46.287Z,0.75
2023-08-15T00:38:47.846Z,0.70
2023-08-15T00:41:49.446Z,0.63
2023-08-15T00:44:51.042Z,1.08
2023-08-15T00:47:52.717Z,0.57
2023-08-15T00:50:54.361Z,1.45
2023-08-15T00:53:56.029Z,0.50
2023-08-15T00:56:57.634Z,1.00
2023-08-15T00:59:59.231Z,0.43
2023-08-15T01:03:00.847Z,1.40
2023-08-15T01:06:02.550Z,0.93
2023-08-15T01:09:04.107Z,1.05
2023-08-15T01:12:05.753Z,1.00
2023-08-15T01:15:07.376Z,0.95
2023-08-15T01:18:08.988Z,0.60
2023-08-15T01:21:10.593Z,0.90
2023-08-15T01:24:12.184Z,0.85
2023-08-15T01:27:14.537Z,0.80
2023-08-15T01:30:16.089Z,0.95
2023-08-15T01:33:17.690Z,0.63
2023-08-15T01:36:19.262Z,0.38
2023-08-15T01:39:20.916Z,0.70
2023-08-15T01:42:22.501Z,0.85
2023-08-15T01:45:24.087Z,0.90
2023-08-15T01:48:25.640Z,1.08
2023-08-15T01:51:27.222Z,1.05
2023-08-15T01:54:28.772Z,0.90
2023-08-15T01:57:30.362Z,0.47
2023-08-15T02:00:31.932Z,1.35
2023-08-15T02:03:33.552Z,0.70
2023-08-15T02:06:35.135Z,0.70
2023-08-15T02:09:36.739Z,1.13
2023-08-15T02:12:38.508Z,0.68
2023-08-15T02:15:40.125Z,1.10
2023-08-15T02:18:42.416Z,0.30
2023-08-15T02:21:44.348Z,1.10
2023-08-15T02:24:45.953Z,0.50
2023-08-15T02:27:47.587Z,0.93
2023-08-15T02:30:49.185Z,0.88
2023-08-15T02:33:50.807Z,1.23
2023-08-15T02:36:52.386Z,0.98
2023-08-15T02:39:54.010Z,1.10
2023-08-15T02:42:55.612Z,1.70
2023-08-15T02:45:57.208Z,1.45
2023-08-15T02:48:58.779Z,1.35
2023-08-15T02:52:00.515Z,1.45
2023-08-15T02:55:02.060Z,1.05
2023-08-15T02:58:03.688Z,1.50
2023-08-15T03:01:05.377Z,1.23
2023-08-15T03:04:06.994Z,1.00
2023-08-15T03:07:08.600Z,1.40
2023-08-15T03:10:10.222Z,1.48
2023-08-15T03:13:11.787Z,1.20
2023-08-15T03:16:13.478Z,1.02
2023-08-15T03:19:15.126Z,1.55
2023-08-15T03:22:16.671Z,1.13
2023-08-15T03:25:18.280Z,1.20
2023-08-15T03:28:19.870Z,1.33
2023-08-15T03:31:21.530Z,1.65
2023-08-15T03:34:23.157Z,0.43
2023-08-15T03:37:24.774Z,0.40
2023-08-15T03:40:26.357Z,0.40
2023-08-15T03:43:27.937Z,0.10
2023-08-15T03:46:29.513Z,0.43
2023-08-15T03:49:31.137Z,0.82
2023-08-15T03:52:32.841Z,0.17
2023-08-15T03:55:34.462Z,0.05
2023-08-15T03:58:36.112Z,0.50
2023-08-15T04:01:37.762Z,0.25
2023-08-15T04:04:39.378Z,0.30
2023-08-15T04:07:40.972Z,0.10
2023-08-15T04:10:42.620Z,0.10
2023-08-15T04:13:44.207Z,0.30
2023-08-15T04:16:48.508Z,0.35
2023-08-15T04:19:50.726Z,0.10
2023-08-15T04:22:52.286Z,0.10
2023-08-15T04:25:53.895Z,0.10
2023-08-15T04:28:55.986Z,0.20
2023-08-15T04:31:57.707Z,0.00
2023-08-15T04:34:59.339Z,0.10
2023-08-15T04:38:00.930Z,0.10
2023-08-15T04:41:02.524Z,0.10
2023-08-15T04:44:04.101Z,0.10
2023-08-15T04:47:05.665Z,0.20
2023-08-15T04:50:07.280Z,0.00
2023-08-15T04:53:08.859Z,0.10
2023-08-15T04:56:10.525Z,0.28
2023-08-15T04:59:12.146Z,0.10
2023-08-15T05:02:13.705Z,0.10
2023-08-15T05:05:15.352Z,0.70
2023-08-15T05:08:16.970Z,0.10
2023-08-15T05:11:18.596Z,0.05
2023-08-15T05:14:20.168Z,0.10
2023-08-15T05:17:22.048Z,0.03
2023-08-15T05:20:23.756Z,0.47
2023-08-15T05:23:25.352Z,0.43
2023-08-15T05:26:26.918Z,0.22
2023-08-15T05:29:28.499Z,0.00
2023-08-15T05:32:30.085Z,0.03
2023-08-15T05:35:31.731Z,0.40
2023-08-15T05:38:33.341Z,0.10
2023-08-15T05:41:34.935Z,0.17
2023-08-15T05:44:36.497Z,0.30
2023-08-15T05:47:38.118Z,0.17
2023-08-15T05:50:39.804Z,0.10
2023-08-15T05:53:41.360Z,0.03
2023-08-15T05:56:42.968Z,0.10
2023-08-15T05:59:44.575Z,0.77
2023-08-15T06:02:46.127Z,0.20
2023-08-15T06:05:47.763Z,0.00
2023-08-15T06:08:49.429Z,0.00
2023-08-15T06:11:51.075Z,0.00
2023-08-15T06:14:52.645Z,0.00
2023-08-15T06:17:54.250Z,0.00
2023-08-15T06:20:55.864Z,0.00
2023-08-15T06:23:57.501Z,0.10
2023-08-15T06:26:59.131Z,0.05
2023-08-15T06:30:00.718Z,0.10
2023-08-15T06:33:02.412Z,0.00
2023-08-15T06:36:04.071Z,0.10
2023-08-15T06:39:05.705Z,0.25
2023-08-15T06:42:07.301Z,0.10
2023-08-15T06:45:08.927Z,0.00
2023-08-15T06:48:10.530Z,0.00
2023-08-15T06:51:12.166Z,0.00
2023-08-15T06:54:13.714Z,0.43
2023-08-15T06:57:15.297Z,0.00
2023-08-15T07:00:16.929Z,0.03
2023-08-15T07:03:18.608Z,0.10
2023-08-15T07:06:20.286Z,0.08
2023-08-15T07:09:21.882Z,0.00
2023-08-15T07:12:23.792Z,0.10
2023-08-15T07:15:25.539Z,0.20
2023-08-15T07:18:27.152Z,0.00
2023-08-15T07:21:28.880Z,0.00
2023-08-15T07:24:30.480Z,0.00
2023-08-15T07:27:32.142Z,0.00
2023-08-15T07:30:33.748Z,0.10
2023-08-15T07:33:35.355Z,0.00
2023-08-15T07:36:36.950Z,0.00
2023-08-15T07:39:38.593Z,0.00
2023-08-15T07:42:40.200Z,0.00
2023-08-15T07:45:42.170Z,0.00
2023-08-15T07:48:43.831Z,0.00
2023-08-15T07:51:45.521Z,0.13
2023-08-15T07:54:47.100Z,0.10
2023-08-15T07:57:48.751Z,0.10
2023-08-15T08:00:50.249Z,0.00
2023-08-15T08:03:51.954Z,0.17
2023-08-15T08:06:53.451Z,0.10
2023-08-15T08:09:55.103Z,0.10
2023-08-15T08:12:56.705Z,0.00
2023-08-15T08:15:58.377Z,0.20
2023-08-15T08:18:59.961Z,0.30
2023-08-15T08:22:01.609Z,0.00
2023-08-15T08:25:03.202Z,0.00
2023-08-15T08:28:04.801Z,0.00
2023-08-15T08:31:06.398Z,0.30
2023-08-15T08:34:07.884Z,0.00
2023-08-15T08:37:09.575Z,0.08
2023-08-15T08:40:11.136Z,0.00
2023-08-15T08:43:12.806Z,0.00
2023-08-15T08:46:14.423Z,0.27
2023-08-15T08:49:16.051Z,0.00
2023-08-15T08:52:17.706Z,0.10
2023-08-15T08:55:20.631Z,0.10
2023-08-15T08:58:22.261Z,0.00
2023-08-15T09:01:23.860Z,0.10
2023-08-15T09:04:25.652Z,0.00
2023-08-15T09:07:27.315Z,0.00
2023-08-15T09:10:28.892Z,0.00
2023-08-15T09:13:30.559Z,0.03
2023-08-15T09:16:32.263Z,0.43
2023-08-15T09:19:33.808Z,0.10
2023-08-15T09:22:35.374Z,0.10
2023-08-15T09:25:37.279Z,0.10
2023-08-15T09:28:38.918Z,0.10
2023-08-15T09:31:40.627Z,0.00
2023-08-15T09:34:42.291Z,0.20
2023-08-15T09:37:44.204Z,0.00
2023-08-15T09:40:45.896Z,0.00
2023-08-15T09:43:47.505Z,0.00
2023-08-15T09:46:49.348Z,0.10
2023-08-15T09:49:52.895Z,0.00
2023-08-15T09:52:54.472Z,0.00
2023-08-15T09:55:56.139Z,0.00
2023-08-15T09:58:57.696Z,0.00
2023-08-15T10:01:59.332Z,0.00
2023-08-15T10:05:01.007Z,0.10
2023-08-15T10:08:05.182Z,0.22
2023-08-15T10:11:06.897Z,0.00
2023-08-15T10:14:08.516Z,0.15
2023-08-15T10:17:10.118Z,0.13
2023-08-15T10:20:12.212Z,0.43
2023-08-15T10:23:13.984Z,0.10
2023-08-15T10:26:15.585Z,0.00
2023-08-15T10:29:17.508Z,0.17
2023-08-15T10:32:22.537Z,0.00
2023-08-15T10:35:26.920Z,0.20
2023-08-15T10:38:33.632Z,0.10
2023-08-15T10:41:35.208Z,0.05
2023-08-15T10:44:36.784Z,0.10
2023-08-15T10:47:38.413Z,0.10
2023-08-15T10:50:40.038Z,0.10
2023-08-15T10:53:41.618Z,0.10
2023-08-15T10:56:43.248Z,0.17
2023-08-15T10:59:44.913Z,0.20
2023-08-15T11:02:46.607Z,0.10
2023-08-15T11:05:48.256Z,0.10
2023-08-15T11:08:49.860Z,0.32
2023-08-15T11:11:51.472Z,1.02
2023-08-15T11:14:53.147Z,0.10
2023-08-15T11:17:54.755Z,0.28
2023-08-15T11:20:56.476Z,0.40
2023-08-15T11:23:58.102Z,0.45
2023-08-15T11:26:59.742Z,1.13
2023-08-15T11:30:01.359Z,0.30
2023-08-15T11:33:03.082Z,0.63
2023-08-15T11:36:04.744Z,0.57
2023-08-15T11:39:06.332Z,0.32
2023-08-15T11:42:07.918Z,0.55
2023-08-15T11:45:09.516Z,0.60
2023-08-15T11:48:11.085Z,0.65
2023-08-15T11:51:12.714Z,0.43
2023-08-15T11:54:14.297Z,1.33
2023-08-15T11:57:15.962Z,0.20
2023-08-15T12:00:17.675Z,0.22
2023-08-15T12:03:19.291Z,0.20
2023-08-15T12:06:20.915Z,0.15
2023-08-15T12:09:22.548Z,0.55
2023-08-15T12:12:24.440Z,0.30
2023-08-15T12:15:26.147Z,0.73
2023-08-15T12:18:27.724Z,0.20
2023-08-15T12:21:29.342Z,0.45
2023-08-15T12:24:30.967Z,0.47
2023-08-15T12:27:32.561Z,0.30
2023-08-15T12:30:34.162Z,0.57
2023-08-15T12:33:46.913Z,0.20
2023-08-15T12:36:49.586Z,0.40
2023-08-15T12:39:51.273Z,0.82
2023-08-15T12:42:53.025Z,0.40
2023-08-15T12:45:54.649Z,0.30
2023-08-15T12:48:56.315Z,0.65
2023-08-15T12:51:57.926Z,0.40
2023-08-15T12:54:59.572Z,0.80
2023-08-15T12:58:01.212Z,0.60
2023-08-15T13:01:02.902Z,1.05
2023-08-15T13:04:05.470Z,2.05
2023-08-15T13:07:07.140Z,0.50
2023-08-15T13:10:08.669Z,0.63
2023-08-15T13:13:10.315Z,0.55
2023-08-15T13:16:11.894Z,0.68
2023-08-15T13:19:13.509Z,1.25
2023-08-15T13:22:15.096Z,0.50
2023-08-15T13:25:16.799Z,0.38
2023-08-15T13:28:18.419Z,0.52
2023-08-15T13:31:20.079Z,0.30
2023-08-15T13:34:21.733Z,0.90
2023-08-15T13:37:23.315Z,1.15
2023-08-15T13:40:24.888Z,0.60
2023-08-15T13:43:26.485Z,0.80
2023-08-15T13:46:28.130Z,0.57
2023-08-15T13:49:29.777Z,0.70
2023-08-15T13:52:31.344Z,0.80
2023-08-15T13:55:32.954Z,0.90
2023-08-15T13:58:34.622Z,0.55
2023-08-15T14:01:36.192Z,0.55
2023-08-15T14:04:37.837Z,0.32
2023-08-15T14:07:39.439Z,0.77
2023-08-15T14:10:41.262Z,0.35
2023-08-15T14:13:42.876Z,0.43
2023-08-15T14:16:44.592Z,0.88
2023-08-15T14:19:46.257Z,1.65
2023-08-15T14:22:47.844Z,0.60
2023-08-15T14:25:49.470Z,0.65
2023-08-15T14:28:51.095Z,0.65
2023-08-15T14:31:52.691Z,1.00
2023-08-15T14:34:54.284Z,0.65
2023-08-15T14:37:55.925Z,1.08
2023-08-15T14:40:57.602Z,0.63
2023-08-15T14:44:02.044Z,0.63
2023-08-15T14:47:03.730Z,0.77
2023-08-15T14:50:05.417Z,0.47
2023-08-15T14:53:07.008Z,0.60
2023-08-15T14:56:08.678Z,0.47
2023-08-15T14:59:10.363Z,0.75
2023-08-15T15:02:11.979Z,0.30
2023-08-15T15:05:13.671Z,0.20
2023-08-15T15:08:15.385Z,0.25
2023-08-15T15:11:16.953Z,0.20
2023-08-15T15:14:18.604Z,0.28
2023-08-15T15:17:20.308Z,0.73
2023-08-15T15:20:22.050Z,0.20
2023-08-15T15:23:23.727Z,0.20
2023-08-15T15:26:25.415Z,0.13
2023-08-15T15:29:27.143Z,0.30
2023-08-15T15:32:28.771Z,0.82
2023-08-15T15:35:30.334Z,0.20
2023-08-15T15:38:31.941Z,0.30
2023-08-15T15:41:33.529Z,0.22
2023-08-15T15:44:35.234Z,0.40
2023-08-15T15:47:36.921Z,0.03
2023-08-15T15:50:38.587Z,0.20
2023-08-15T15:53:40.182Z,0.20
2023-08-15T15:56:41.773Z,0.30
2023-08-15T15:59:43.371Z,0.30
2023-08-15T16:02:45.129Z,0.38
2023-08-15T16:05:46.794Z,0.25
2023-08-15T16:08:48.472Z,1.45
2023-08-15T16:11:50.038Z,0.30
2023-08-15T16:14:51.669Z,0.50
2023-08-15T16:17:53.263Z,0.65
2023-08-15T16:20:54.944Z,0.65
2023-08-15T16:23:56.495Z,0.43
2023-08-15T16:26:58.118Z,0.20
2023-08-15T16:30:14.995Z,0.10
2023-08-15T16:33:19.311Z,0.30
2023-08-15T16:36:20.934Z,0.80
2023-08-15T16:39:22.555Z,0.45
2023-08-15T16:42:24.304Z,0.60
2023-08-15T16:45:25.999Z,0.33
2023-08-15T16:48:27.650Z,0.57
2023-08-15T16:51:29.358Z,0.85
2023-08-15T16:54:30.945Z,0.50
2023-08-15T16:57:32.571Z,0.52
2023-08-15T17:00:34.213Z,0.40
2023-08-15T17:03:36.002Z,0.40
2023-08-15T17:06:37.759Z,0.32
2023-08-15T17:09:39.328Z,0.75
2023-08-15T17:12:41.039Z,0.85
2023-08-15T17:15:42.636Z,0.70
2023-08-15T17:18:44.232Z,0.32
2023-08-15T17:21:45.844Z,0.65
2023-08-15T17:24:47.487Z,0.45
2023-08-15T17:27:49.030Z,0.30
2023-08-15T17:30:50.727Z,0.52
2023-08-15T17:33:52.469Z,0.65
2023-08-15T17:36:54.069Z,1.27
2023-08-15T17:39:55.656Z,0.40
2023-08-15T17:42:57.236Z,0.68
2023-08-15T17:45:59.057Z,0.63
2023-08-15T17:49:00.727Z,0.70
2023-08-15T17:52:02.441Z,0.40
2023-08-15T17:55:04.051Z,0.82
2023-08-15T17:58:05.712Z,0.80
2023-08-15T18:01:07.324Z,1.30
2023-08-15T18:04:08.907Z,1.13
2023-08-15T18:07:10.579Z,0.60
2023-08-15T18:10:12.195Z,1.00
2023-08-15T18:13:13.803Z,0.80
2023-08-15T18:16:15.435Z,0.52
2023-08-15T18:19:17.453Z,0.57
2023-08-15T18:22:19.034Z,0.67
2023-08-15T18:25:20.644Z,1.02
2023-08-15T18:28:22.293Z,1.40
2023-08-15T18:31:23.891Z,0.80
2023-08-15T18:34:25.614Z,0.70
2023-08-15T18:37:27.278Z,1.65
2023-08-15T18:40:28.882Z,1.10
2023-08-15T18:43:30.469Z,0.65
2023-08-15T18:46:32.092Z,1.33
2023-08-15T18:49:33.835Z,0.60
2023-08-15T18:52:35.492Z,1.05
2023-08-15T18:55:37.058Z,0.65
2023-08-15T18:58:38.770Z,1.67
2023-08-15T19:01:40.420Z,0.75
2023-08-15T19:04:42.140Z,0.80
2023-08-15T19:07:43.753Z,1.27
2023-08-15T19:10:45.310Z,1.23
2023-08-15T19:13:46.925Z,1.88
2023-08-15T19:16:48.545Z,0.70
2023-08-15T19:19:50.147Z,0.63
2023-08-15T19:22:51.794Z,0.85
2023-08-15T19:25:53.385Z,0.43
2023-08-15T19:28:54.971Z,0.55
2023-08-15T19:31:56.540Z,0.82
2023-08-15T19:34:58.223Z,0.63
2023-08-15T19:37:59.883Z,1.05
2023-08-15T19:41:01.454Z,0.68
2023-08-15T19:44:03.155Z,0.57
2023-08-15T19:47:04.856Z,0.95
2023-08-15T19:50:06.463Z,0.82
2023-08-15T19:53:08.078Z,1.63
2023-08-15T19:56:09.765Z,0.57
2023-08-15T19:59:11.349Z,0.60
2023-08-15T20:02:14.438Z,0.93
2023-08-15T20:05:16.600Z,0.50
2023-08-15T20:08:18.280Z,1.48
2023-08-15T20:11:19.834Z,0.82
2023-08-15T20:14:21.433Z,0.50
2023-08-15T20:17:22.998Z,0.50
2023-08-15T20:20:24.631Z,0.88
2023-08-15T20:23:26.236Z,0.57
2023-08-15T20:26:27.822Z,1.30
2023-08-15T20:29:29.407Z,0.90
2023-08-15T20:32:31.256Z,0.68
2023-08-15T20:35:32.971Z,0.30
2023-08-15T20:38:34.555Z,0.65
2023-08-15T20:41:36.328Z,0.52
2023-08-15T20:44:37.915Z,0.52
2023-08-15T20:47:39.559Z,0.40
2023-08-15T20:50:41.167Z,0.40
2023-08-15T20:53:42.790Z,0.57
2023-08-15T20:56:44.459Z,0.32
2023-08-15T20:59:46.088Z,0.73
2023-08-15T21:02:47.751Z,0.30
2023-08-15T21:05:49.425Z,0.80
2023-08-15T21:08:51.091Z,0.40
2023-08-15T21:11:52.681Z,0.75
2023-08-15T21:14:54.315Z,0.55
2023-08-15T21:17:56.015Z,0.60
2023-08-15T21:20:57.822Z,0.73
2023-08-15T21:23:59.453Z,0.50
2023-08-15T21:27:01.049Z,0.73
2023-08-15T21:30:02.703Z,0.77
2023-08-15T21:33:04.423Z,0.60
2023-08-15T21:36:06.023Z,0.50
2023-08-15T21:39:07.638Z,0.32
2023-08-15T21:42:09.234Z,0.55
2023-08-15T21:45:10.855Z,0.68
2023-08-15T21:48:12.507Z,0.52
2023-08-15T21:51:14.115Z,1.40
2023-08-15T21:54:15.707Z,0.68
2023-08-15T21:57:17.546Z,0.40
2023-08-15T22:00:19.116Z,0.60
2023-08-15T22:03:20.832Z,0.40
2023-08-15T22:06:22.574Z,1.40
2023-08-15T22:09:24.236Z,0.68
2023-08-15T22:12:25.810Z,0.47
2023-08-15T22:15:27.470Z,0.50
2023-08-15T22:18:29.130Z,0.55
2023-08-15T22:21:30.774Z,0.40
2023-08-15T22:24:32.410Z,0.65
2023-08-15T22:27:34.029Z,0.30
2023-08-15T22:30:35.597Z,0.45
2023-08-15T22:33:37.252Z,0.60
2023-08-15T22:36:38.870Z,1.38
2023-08-15T22:39:40.449Z,0.50
2023-08-15T22:42:42.078Z,0.40
2023-08-15T22:45:43.804Z,0.20
2023-08-15T22:48:45.436Z,0.43
2023-08-15T22:51:47.048Z,0.40
2023-08-15T22:54:48.671Z,0.30
2023-08-15T22:57:50.280Z,0.20
2023-08-15T23:00:51.979Z,0.30
2023-08-15T23:03:53.585Z,0.40
2023-08-15T23:06:55.290Z,0.60
2023-08-15T23:09:56.931Z,0.30
2023-08-15T23:12:58.554Z,0.50
2023-08-15T23:16:00.265Z,0.30
2023-08-15T23:19:01.965Z,0.90
2023-08-15T23:22:03.686Z,0.55
2023-08-15T23:25:05.325Z,0.40
2023-08-15T23:28:06.971Z,0.30
2023-08-15T23:31:08.553Z,0.40
2023-08-15T23:34:10.274Z,0.57
2023-08-15T23:37:11.875Z,0.30
2023-08-15T23:40:13.462Z,0.85
2023-08-15T23:43:15.126Z,0.40
2023-08-15T23:46:16.779Z,0.30
2023-08-15T23:49:18.485Z,0.55
2023-08-15T23:52:20.157Z,0.35
2023-08-15T23:55:21.852Z,0.68
2023-08-15T23:58:23.412Z,0.40
